createdAt,value
2018-08-23T00:01:38.725Z,41.50
2018-08-23T00:04:11.625Z,41.62
2018-08-23T00:06:53.566Z,41.40
2018-08-23T00:09:25.216Z,41.79
2018-08-23T00:11:56.719Z,41.65
2018-08-23T00:14:28.349Z,41.43
2018-08-23T00:16:59.858Z,41.20
2018-08-23T00:19:31.527Z,41.45
2018-08-23T00:22:02.888Z,41.73
2018-08-23T00:24:34.391Z,41.64
2018-08-23T00:27:05.838Z,40.90
2018-08-23T00:29:36.956Z,41.53
2018-08-23T00:32:09.557Z,41.30
2018-08-23T00:34:41.798Z,41.42
2018-08-23T00:37:14.561Z,41.34
2018-08-23T00:39:46.203Z,41.52
2018-08-23T00:42:17.723Z,41.61
2018-08-23T00:45:02.749Z,41.49
2018-08-23T00:47:35.018Z,41.75
2018-08-23T00:50:06.642Z,41.23
2018-08-23T00:52:45.503Z,41.60
2018-08-23T00:55:33.230Z,41.68
2018-08-23T00:58:05.705Z,41.98
2018-08-23T01:00:37.458Z,41.54
2018-08-23T01:03:08.895Z,41.59
2018-08-23T01:05:41.398Z,41.25
2018-08-23T01:10:59.658Z,41.44
2018-08-23T01:13:30.672Z,41.77
2018-08-23T01:16:01.704Z,41.55
2018-08-23T01:18:32.828Z,41.44
2018-08-23T01:21:09.963Z,41.80
2018-08-23T01:23:43.620Z,41.62
2018-08-23T01:26:14.709Z,41.37
2018-08-23T01:28:45.700Z,41.38
2018-08-23T01:31:29.788Z,41.57
2018-08-23T01:34:01.310Z,41.90
2018-08-23T01:36:34.619Z,42.13
2018-08-23T01:39:12.576Z,41.96
2018-08-23T01:41:43.722Z,41.96
2018-08-23T01:44:14.821Z,41.85
2018-08-23T01:46:45.869Z,41.55
2018-08-23T01:49:19.656Z,41.63
2018-08-23T01:51:50.711Z,41.63
2018-08-23T01:54:21.824Z,42.06
2018-08-23T01:56:52.864Z,41.91
2018-08-23T01:59:23.822Z,41.38
2018-08-23T02:01:55.303Z,42.21
2018-08-23T02:04:26.809Z,41.94
2018-08-23T02:06:58.015Z,41.61
2018-08-23T02:09:29.684Z,41.68
2018-08-23T02:12:01.195Z,42.20
2018-08-23T02:14:37.214Z,41.77
2018-08-23T02:17:08.779Z,41.80
2018-08-23T02:19:47.749Z,41.88
2018-08-23T02:22:19.032Z,42.02
2018-08-23T02:24:50.504Z,42.03
2018-08-23T02:27:21.899Z,42.44
2018-08-23T02:29:52.551Z,42.22
2018-08-23T02:32:23.991Z,42.14
2018-08-23T02:35:06.212Z,41.65
2018-08-23T02:37:37.737Z,42.61
2018-08-23T02:40:09.324Z,42.40
2018-08-23T02:42:40.792Z,41.88
2018-08-23T02:45:16.304Z,42.08
2018-08-23T02:47:47.781Z,42.13
2018-08-23T02:50:19.381Z,42.16
2018-08-23T02:52:50.774Z,42.05
2018-08-23T02:55:21.794Z,42.24
2018-08-23T02:58:00.710Z,42.13
2018-08-23T03:00:37.269Z,42.51
2018-08-23T03:03:09.296Z,42.69
2018-08-23T03:05:42.314Z,42.42
2018-08-23T03:08:13.744Z,42.80
2018-08-23T03:10:45.007Z,42.16
2018-08-23T03:13:16.319Z,42.15
2018-08-23T03:15:47.784Z,42.12
2018-08-23T03:18:19.388Z,42.22
2018-08-23T03:23:34.965Z,42.68
2018-08-23T03:26:05.416Z,42.26
2018-08-23T03:28:37.379Z,42.54
2018-08-23T03:31:08.665Z,42.36
2018-08-23T03:33:39.823Z,42.23
2018-08-23T03:36:10.786Z,42.32
2018-08-23T03:38:42.219Z,42.73
2018-08-23T03:41:13.452Z,42.29
2018-08-23T03:43:44.684Z,42.83
2018-08-23T03:46:15.771Z,42.41
2018-08-23T03:48:52.592Z,42.50
2018-08-23T03:51:23.848Z,42.80
2018-08-23T03:54:01.213Z,43.02
2018-08-23T03:56:32.538Z,42.75
2018-08-23T03:59:03.599Z,42.47
2018-08-23T04:01:34.771Z,42.49
2018-08-23T04:04:05.875Z,42.65
2018-08-23T04:06:36.876Z,42.82
2018-08-23T04:09:10.851Z,42.50
2018-08-23T04:11:42.007Z,43.01
2018-08-23T04:14:13.219Z,42.52
2018-08-23T04:16:44.475Z,42.71
2018-08-23T04:19:15.686Z,42.98
2018-08-23T04:21:46.725Z,42.59
2018-08-23T04:24:17.849Z,42.85
2018-08-23T04:26:49.225Z,43.03
2018-08-23T04:29:35.639Z,42.94
2018-08-23T04:32:06.920Z,42.97
2018-08-23T04:34:39.528Z,42.88
2018-08-23T04:37:10.885Z,42.60
2018-08-23T04:39:47.371Z,42.65
2018-08-23T04:42:19.405Z,43.08
2018-08-23T04:44:53.406Z,42.71
2018-08-23T04:47:25.349Z,42.80
2018-08-23T04:49:56.801Z,42.77
2018-08-23T04:52:28.308Z,42.71
2018-08-23T04:54:59.795Z,42.13
2018-08-23T04:57:31.405Z,42.60
2018-08-23T05:00:03.229Z,42.66
2018-08-23T05:02:34.708Z,42.51
2018-08-23T05:05:06.316Z,42.68
2018-08-23T05:07:37.869Z,42.76
2018-08-23T05:10:10.700Z,43.02
2018-08-23T05:12:42.216Z,42.70
2018-08-23T05:15:13.709Z,43.06
2018-08-23T05:17:45.216Z,42.96
2018-08-23T05:20:16.685Z,43.10
2018-08-23T05:22:56.657Z,43.06
2018-08-23T05:25:27.904Z,43.14
2018-08-23T05:28:18.407Z,42.76
2018-08-23T05:30:50.681Z,43.15
2018-08-23T05:33:23.004Z,42.78
2018-08-23T05:35:54.696Z,42.85
2018-08-23T05:38:25.985Z,43.13
2018-08-23T05:41:01.780Z,42.75
2018-08-23T05:43:33.210Z,43.09
2018-08-23T05:46:04.787Z,43.17
2018-08-23T05:48:36.402Z,43.10
2018-08-23T05:51:14.381Z,43.20
2018-08-23T05:53:52.552Z,43.16
2018-08-23T05:56:23.876Z,42.70
2018-08-23T05:59:00.709Z,42.82
2018-08-23T06:01:32.291Z,42.75
2018-08-23T06:04:03.832Z,42.29
2018-08-23T06:06:35.383Z,42.80
2018-08-23T06:09:10.985Z,42.62
2018-08-23T06:11:42.706Z,42.68
2018-08-23T06:14:14.798Z,42.33
2018-08-23T06:16:49.716Z,42.39
2018-08-23T06:19:21.317Z,42.43
2018-08-23T06:21:52.771Z,42.73
2018-08-23T06:24:28.517Z,42.47
2018-08-23T06:27:03.699Z,42.32
2018-08-23T06:29:36.394Z,42.29
2018-08-23T06:32:10.323Z,42.11
2018-08-23T06:34:51.752Z,42.11
2018-08-23T06:37:23.982Z,42.17
2018-08-23T06:39:55.643Z,42.56
2018-08-23T06:42:47.208Z,42.19
2018-08-23T06:45:18.648Z,41.83
2018-08-23T06:47:54.758Z,41.84
2018-08-23T06:50:27.559Z,42.12
2018-08-23T06:52:59.362Z,42.30
2018-08-23T06:55:37.289Z,42.16
2018-08-23T06:58:08.723Z,42.06
2018-08-23T07:00:40.212Z,42.35
2018-08-23T07:03:11.418Z,42.38
2018-08-23T07:05:42.704Z,42.46
2018-08-23T07:08:14.304Z,42.42
2018-08-23T07:10:45.819Z,42.23
2018-08-23T07:13:17.313Z,42.25
2018-08-23T07:15:52.591Z,42.24
2018-08-23T07:18:24.215Z,42.51
2018-08-23T07:20:55.603Z,42.38
2018-08-23T07:23:37.662Z,42.66
2018-08-23T07:26:09.542Z,42.25
2018-08-23T07:28:40.890Z,42.61
2018-08-23T07:31:12.316Z,42.72
2018-08-23T07:33:44.769Z,42.62
2018-08-23T07:36:30.735Z,42.50
2018-08-23T07:39:02.308Z,42.58
2018-08-23T07:41:33.744Z,42.62
2018-08-23T07:44:05.212Z,42.55
2018-08-23T07:46:36.736Z,42.81
2018-08-23T07:49:08.306Z,42.61
2018-08-23T07:51:39.757Z,42.70
2018-08-23T07:54:15.226Z,42.54
2018-08-23T07:56:47.240Z,42.33
2018-08-23T07:59:18.726Z,42.80
2018-08-23T08:01:50.214Z,42.54
2018-08-23T08:04:21.743Z,42.64
2018-08-23T08:06:53.193Z,42.53
2018-08-23T08:09:27.794Z,42.42
2018-08-23T08:12:02.382Z,42.52
2018-08-23T08:14:38.316Z,42.79
2018-08-23T08:17:17.716Z,42.50
2018-08-23T08:19:54.473Z,42.55
2018-08-23T08:22:25.899Z,42.85
2018-08-23T08:25:05.670Z,42.38
2018-08-23T08:27:37.214Z,42.71
2018-08-23T08:30:13.768Z,42.47
2018-08-23T08:32:45.699Z,42.58
2018-08-23T08:35:18.882Z,42.52
2018-08-23T08:37:50.543Z,42.46
2018-08-23T08:40:24.721Z,42.63
2018-08-23T08:42:55.746Z,42.78
2018-08-23T08:45:29.017Z,42.61
2018-08-23T08:48:25.448Z,42.31
2018-08-23T08:51:23.207Z,42.63
2018-08-23T08:53:55.686Z,42.39
2018-08-23T08:56:39.231Z,42.63
2018-08-23T08:59:10.802Z,42.60
2018-08-23T09:01:42.361Z,42.46
2018-08-23T09:04:44.788Z,42.60
2018-08-23T09:07:15.779Z,42.32
2018-08-23T09:09:46.914Z,42.58
2018-08-23T09:12:17.579Z,42.55
2018-08-23T09:14:49.204Z,42.40
2018-08-23T09:17:47.290Z,42.61
2018-08-23T09:20:19.723Z,42.49
2018-08-23T09:22:52.536Z,42.22
2018-08-23T09:25:30.193Z,42.63
2018-08-23T09:28:01.411Z,42.62
2018-08-23T09:30:33.644Z,42.57
2018-08-23T09:33:10.547Z,42.69
2018-08-23T09:35:42.349Z,42.39
2018-08-23T09:38:16.303Z,42.39
2018-08-23T09:40:47.564Z,42.61
2018-08-23T09:43:19.221Z,42.31
2018-08-23T09:45:50.450Z,42.51
2018-08-23T09:48:22.578Z,42.09
2018-08-23T09:50:53.707Z,42.24
2018-08-23T09:53:26.449Z,42.51
2018-08-23T09:55:58.444Z,42.67
2018-08-23T09:58:34.630Z,42.22
2018-08-23T10:01:10.517Z,42.59
2018-08-23T10:03:47.303Z,42.67
2018-08-23T10:06:22.644Z,42.39
2018-08-23T10:09:20.270Z,42.28
2018-08-23T10:11:56.593Z,42.37
2018-08-23T10:14:32.679Z,42.17
2018-08-23T10:17:08.823Z,42.55
2018-08-23T10:19:45.050Z,42.40
2018-08-23T10:22:18.653Z,42.15
2018-08-23T10:24:49.694Z,42.44
2018-08-23T10:27:21.364Z,42.33
2018-08-23T10:29:52.551Z,42.53
2018-08-23T10:32:23.637Z,42.44
2018-08-23T10:34:54.984Z,42.51
2018-08-23T10:37:26.500Z,42.53
2018-08-23T10:39:57.882Z,42.15
2018-08-23T10:42:29.350Z,41.74
2018-08-23T10:45:00.736Z,42.36
2018-08-23T10:47:37.325Z,42.35
2018-08-23T10:50:08.741Z,42.63
2018-08-23T10:52:40.799Z,42.43
2018-08-23T10:55:12.231Z,42.55
2018-08-23T10:57:43.494Z,42.36
2018-08-23T11:00:15.021Z,42.04
2018-08-23T11:02:46.631Z,42.38
2018-08-23T11:05:18.206Z,42.43
2018-08-23T11:07:54.652Z,42.49
2018-08-23T11:10:30.982Z,42.13
2018-08-23T11:13:06.660Z,42.55
2018-08-23T11:15:38.227Z,42.63
2018-08-23T11:18:14.818Z,42.24
2018-08-23T11:20:47.582Z,42.10
2018-08-23T11:23:22.925Z,42.19
2018-08-23T11:25:53.501Z,42.13
2018-08-23T11:28:27.197Z,42.17
2018-08-23T11:31:03.422Z,41.94
2018-08-23T11:33:34.757Z,42.53
2018-08-23T11:36:06.318Z,42.29
2018-08-23T11:38:37.781Z,42.55
2018-08-23T11:41:09.212Z,42.27
2018-08-23T11:43:40.720Z,42.41
2018-08-23T11:46:15.699Z,42.14
2018-08-23T11:48:49.771Z,42.30
2018-08-23T11:51:21.992Z,42.26
2018-08-23T11:53:52.727Z,41.92
2018-08-23T11:56:24.211Z,42.14
2018-08-23T11:58:55.696Z,41.99
2018-08-23T12:01:27.194Z,41.91
2018-08-23T12:03:58.682Z,41.95
2018-08-23T12:06:30.421Z,42.00
2018-08-23T12:09:01.780Z,41.89
2018-08-23T12:11:33.332Z,42.17
2018-08-23T12:14:04.969Z,42.52
2018-08-23T12:16:35.638Z,42.35
2018-08-23T12:19:07.301Z,42.05
2018-08-23T12:21:38.711Z,42.36
2018-08-23T12:24:10.314Z,42.22
2018-08-23T12:26:41.902Z,41.96
2018-08-23T12:29:13.404Z,42.39
2018-08-23T12:31:45.004Z,42.09
2018-08-23T12:37:09.913Z,42.30
2018-08-23T12:39:46.212Z,42.49
2018-08-23T12:42:22.427Z,42.35
2018-08-23T12:44:53.615Z,42.42
2018-08-23T12:47:24.732Z,42.45
2018-08-23T12:49:59.664Z,42.20
2018-08-23T12:52:30.741Z,42.03
2018-08-23T12:55:02.558Z,42.14
2018-08-23T12:57:33.640Z,42.31
2018-08-23T13:00:04.684Z,42.37
2018-08-23T13:02:36.456Z,41.92
2018-08-23T13:05:07.677Z,41.96
2018-08-23T13:07:38.737Z,42.03
2018-08-23T13:10:09.905Z,42.17
2018-08-23T13:12:40.385Z,42.09
2018-08-23T13:15:11.642Z,42.20
2018-08-23T13:17:42.720Z,41.97
2018-08-23T13:20:13.876Z,42.12
2018-08-23T13:22:44.908Z,42.01
2018-08-23T13:25:16.378Z,42.25
2018-08-23T13:27:47.597Z,42.23
2018-08-23T13:30:18.677Z,42.31
2018-08-23T13:32:49.825Z,41.79
2018-08-23T13:35:21.395Z,42.12
2018-08-23T13:37:54.347Z,41.81
2018-08-23T13:40:25.784Z,41.79
2018-08-23T13:42:57.537Z,42.06
2018-08-23T13:45:29.207Z,41.90
2018-08-23T13:48:00.647Z,42.29
2018-08-23T13:50:32.220Z,42.26
2018-08-23T13:53:03.672Z,41.88
2018-08-23T13:55:35.247Z,42.15
2018-08-23T13:58:06.757Z,41.84
2018-08-23T14:00:40.214Z,41.99
2018-08-23T14:03:12.720Z,41.87
2018-08-23T14:05:44.313Z,41.88
2018-08-23T14:08:15.910Z,41.97
2018-08-23T14:10:46.556Z,41.82
2018-08-23T14:13:18.219Z,42.33
2018-08-23T14:15:54.547Z,42.34
2018-08-23T14:18:26.201Z,42.33
2018-08-23T14:20:57.777Z,42.38
2018-08-23T14:23:29.451Z,42.04
2018-08-23T14:26:01.075Z,42.26
2018-08-23T14:28:33.313Z,41.87
2018-08-23T14:31:04.803Z,42.21
2018-08-23T14:33:36.349Z,42.02
2018-08-23T14:36:08.734Z,42.16
2018-08-23T14:38:40.402Z,42.02
2018-08-23T14:41:11.782Z,41.97
2018-08-23T14:43:43.219Z,42.17
2018-08-23T14:46:19.713Z,42.38
2018-08-23T14:48:51.298Z,42.15
2018-08-23T14:51:22.783Z,42.40
2018-08-23T14:53:54.382Z,42.15
2018-08-23T14:56:31.207Z,41.90
2018-08-23T14:59:03.336Z,42.18
2018-08-23T15:01:34.750Z,41.91
2018-08-23T15:04:06.354Z,42.13
2018-08-23T15:06:37.791Z,41.92
2018-08-23T15:09:10.343Z,42.22
2018-08-23T15:11:41.806Z,42.48
2018-08-23T15:14:13.767Z,42.28
2018-08-23T15:16:45.423Z,42.35
2018-08-23T15:19:16.828Z,42.27
2018-08-23T15:21:48.326Z,42.20
2018-08-23T15:24:19.893Z,42.11
2018-08-23T15:26:51.455Z,41.89
2018-08-23T15:29:22.744Z,41.90
2018-08-23T15:31:54.223Z,42.17
2018-08-23T15:34:25.678Z,42.44
2018-08-23T15:36:57.215Z,42.51
2018-08-23T15:39:28.721Z,41.90
2018-08-23T15:42:00.234Z,41.72
2018-08-23T15:44:32.201Z,41.36
2018-08-23T15:47:03.765Z,41.30
2018-08-23T15:49:35.212Z,41.69
2018-08-23T15:52:06.707Z,41.39
2018-08-23T15:54:38.221Z,41.75
2018-08-23T15:57:09.711Z,41.85
2018-08-23T15:59:41.204Z,41.70
2018-08-23T16:02:12.734Z,42.23
2018-08-23T16:04:44.318Z,43.06
2018-08-23T16:07:15.768Z,42.87
2018-08-23T16:09:47.326Z,42.95
2018-08-23T16:12:18.769Z,42.91
2018-08-23T16:14:50.210Z,43.21
2018-08-23T16:17:26.797Z,44.78
2018-08-23T16:20:03.357Z,43.75
2018-08-23T16:22:34.772Z,44.46
2018-08-23T16:25:06.353Z,44.19
2018-08-23T16:27:37.911Z,43.98
2018-08-23T16:30:08.600Z,43.04
2018-08-23T16:32:40.023Z,42.54
2018-08-23T16:35:11.677Z,44.12
2018-08-23T16:37:43.219Z,43.14
2018-08-23T16:40:31.606Z,42.93
2018-08-23T16:43:04.656Z,43.63
2018-08-23T16:45:36.314Z,42.79
2018-08-23T16:48:07.799Z,44.02
2018-08-23T16:50:39.338Z,44.50
2018-08-23T16:53:10.814Z,43.81
2018-08-23T16:55:42.232Z,43.79
2018-08-23T16:58:13.627Z,43.23
2018-08-23T17:03:25.615Z,42.00
2018-08-23T17:05:56.682Z,42.17
2018-08-23T17:08:27.810Z,42.00
2018-08-23T17:10:58.805Z,42.14
2018-08-23T17:13:35.608Z,42.27
2018-08-23T17:16:12.568Z,43.84
2018-08-23T17:18:43.612Z,42.07
2018-08-23T17:21:15.211Z,41.95
2018-08-23T17:23:46.729Z,42.36
2018-08-23T17:26:18.312Z,42.17
2018-08-23T17:28:49.768Z,42.14
2018-08-23T17:31:21.309Z,42.10
2018-08-23T17:33:52.808Z,41.88
2018-08-23T17:36:24.193Z,42.12
2018-08-23T17:38:55.699Z,42.05
2018-08-23T17:41:27.206Z,42.03
2018-08-23T17:43:58.750Z,42.01
2018-08-23T17:46:30.340Z,42.28
2018-08-23T17:49:01.848Z,42.46
2018-08-23T17:51:33.419Z,42.30
2018-08-23T17:54:04.864Z,42.35
2018-08-23T17:56:36.897Z,42.68
2018-08-23T17:59:08.525Z,42.87
2018-08-23T18:01:40.061Z,42.30
2018-08-23T18:04:11.661Z,42.70
2018-08-23T18:06:43.239Z,42.84
2018-08-23T18:09:15.422Z,43.08
2018-08-23T18:11:47.010Z,42.56
2018-08-23T18:14:18.631Z,42.99
2018-08-23T18:16:55.200Z,43.01
2018-08-23T18:19:26.736Z,42.77
2018-08-23T18:21:58.383Z,42.75
2018-08-23T18:24:30.276Z,42.65
2018-08-23T18:27:01.822Z,43.23
2018-08-23T18:29:33.187Z,42.77
2018-08-23T18:32:04.805Z,43.58
2018-08-23T18:34:36.332Z,42.83
2018-08-23T18:37:08.519Z,43.44
2018-08-23T18:39:39.866Z,42.81
2018-08-23T18:42:11.805Z,42.87
2018-08-23T18:44:43.408Z,43.25
2018-08-23T18:47:15.210Z,43.11
2018-08-23T18:49:46.741Z,43.09
2018-08-23T18:52:18.393Z,43.18
2018-08-23T18:54:49.813Z,43.30
2018-08-23T18:57:21.323Z,43.26
2018-08-23T18:59:52.867Z,43.35
2018-08-23T19:02:25.306Z,43.13
2018-08-23T19:04:56.810Z,43.51
2018-08-23T19:07:33.440Z,43.36
2018-08-23T19:10:04.806Z,43.68
2018-08-23T19:12:36.350Z,43.15
2018-08-23T19:16:47.816Z,43.08
2018-08-23T19:19:18.779Z,43.90
2018-08-23T19:21:49.908Z,44.03
2018-08-23T19:24:20.814Z,44.50
2018-08-23T19:26:51.884Z,44.00
2018-08-23T19:29:22.860Z,44.12
2018-08-23T19:31:54.015Z,43.14
2018-08-23T19:34:24.905Z,43.23
2018-08-23T19:36:55.933Z,44.06
2018-08-23T19:39:26.460Z,43.57
2018-08-23T19:41:57.793Z,43.19
2018-08-23T19:44:28.985Z,43.67
2018-08-23T19:47:05.303Z,44.06
2018-08-23T19:49:41.534Z,43.07
2018-08-23T19:52:12.730Z,43.73
2018-08-23T19:54:43.865Z,43.15
2018-08-23T19:57:15.004Z,43.49
2018-08-23T19:59:46.655Z,43.45
2018-08-23T20:02:18.059Z,43.12
2018-08-23T20:04:49.634Z,43.54
2018-08-23T20:07:21.315Z,43.95
2018-08-23T20:09:52.794Z,43.60
2018-08-23T20:12:24.336Z,43.61
2018-08-23T20:14:55.817Z,43.33
2018-08-23T20:17:27.398Z,43.45
2018-08-23T20:19:58.994Z,43.12
2018-08-23T20:22:31.214Z,43.66
2018-08-23T20:25:02.740Z,43.20
2018-08-23T20:27:33.796Z,43.56
2018-08-23T20:30:04.877Z,43.36
2018-08-23T20:32:36.568Z,42.90
2018-08-23T20:35:07.888Z,43.31
2018-08-23T20:37:39.338Z,43.66
2018-08-23T20:40:10.814Z,43.55
2018-08-23T20:42:42.409Z,43.61
2018-08-23T20:45:13.856Z,43.23
2018-08-23T20:47:45.485Z,43.67
2018-08-23T20:50:16.857Z,43.17
2018-08-23T20:52:48.424Z,43.43
2018-08-23T20:55:19.826Z,43.19
2018-08-23T20:57:51.257Z,43.32
2018-08-23T21:00:22.475Z,43.49
2018-08-23T21:02:53.907Z,43.26
2018-08-23T21:05:24.548Z,43.29
2018-08-23T21:07:56.204Z,43.77
2018-08-23T21:10:27.637Z,43.06
2018-08-23T21:12:59.193Z,43.31
2018-08-23T21:15:30.793Z,43.34
2018-08-23T21:18:02.466Z,43.51
2018-08-23T21:20:33.622Z,43.19
2018-08-23T21:23:05.214Z,43.26
2018-08-23T21:25:36.613Z,43.66
2018-08-23T21:28:08.218Z,43.34
2018-08-23T21:30:39.733Z,43.24
2018-08-23T21:33:11.656Z,43.20
2018-08-23T21:35:43.397Z,43.72
2018-08-23T21:38:14.691Z,43.63
2018-08-23T21:40:46.220Z,42.97
2018-08-23T21:43:17.990Z,43.43
2018-08-23T21:45:49.632Z,44.02
2018-08-23T21:48:21.197Z,44.49
2018-08-23T21:50:52.753Z,43.79
2018-08-23T21:53:24.298Z,44.36
2018-08-23T21:55:55.761Z,43.52
2018-08-23T21:58:27.218Z,43.94
2018-08-23T22:01:03.750Z,43.69
2018-08-23T22:03:34.780Z,44.08
2018-08-23T22:06:06.611Z,44.19
2018-08-23T22:08:38.207Z,44.48
2018-08-23T22:11:09.830Z,43.27
2018-08-23T22:13:41.402Z,43.34
2018-08-23T22:16:12.892Z,43.56
2018-08-23T22:18:44.431Z,43.68
2018-08-23T22:21:15.970Z,43.76
2018-08-23T22:23:47.836Z,43.71
2018-08-23T22:26:19.443Z,44.09
2018-08-23T22:28:50.986Z,44.68
2018-08-23T22:31:21.639Z,43.66
2018-08-23T22:33:53.226Z,43.99
2018-08-23T22:36:24.742Z,43.57
2018-08-23T22:38:56.203Z,43.71
2018-08-23T22:41:27.753Z,43.33
2018-08-23T22:43:59.306Z,44.21
2018-08-23T22:46:30.769Z,44.02
2018-08-23T22:49:02.381Z,44.07
2018-08-23T22:51:33.896Z,44.18
2018-08-23T22:54:05.615Z,43.76
2018-08-23T22:56:37.044Z,43.88
2018-08-23T22:59:08.709Z,43.97
2018-08-23T23:01:40.681Z,43.74
2018-08-23T23:04:17.201Z,44.22
2018-08-23T23:06:48.708Z,44.29
2018-08-23T23:09:20.536Z,44.12
2018-08-23T23:11:52.217Z,44.78
2018-08-23T23:14:23.721Z,43.27
2018-08-23T23:16:55.620Z,43.63
2018-08-23T23:19:27.017Z,43.54
2018-08-23T23:21:58.627Z,43.90
2018-08-23T23:24:35.296Z,44.36
2018-08-23T23:27:07.734Z,44.60
2018-08-23T23:29:39.612Z,43.77
2018-08-23T23:32:11.208Z,44.41
2018-08-23T23:34:42.726Z,44.38
2018-08-23T23:37:14.199Z,43.71
2018-08-23T23:39:45.722Z,44.11
2018-08-23T23:42:17.367Z,44.25
2018-08-23T23:44:48.906Z,43.76
2018-08-23T23:47:20.289Z,44.09
2018-08-23T23:49:51.781Z,44.35
2018-08-23T23:52:23.468Z,44.05
2018-08-23T23:54:55.215Z,43.97
2018-08-23T23:57:26.728Z,44.57
2018-08-23T23:59:58.213Z,43.93
